New Orleans, LA (70158)

9:43 AM CST on December 22, 2014 (GMT -0600)
Harvey Canal | Change Station
CLOSE
Current Station
Personal Weather Station
Location: Harvey, LA
Elevation: 20 ft
Nearby Weather Stations

Elev 20 ft 29.91 °N, 90.08 °W | Updated 11 seconds ago

Overcast
Overcast
62.6 °F
Feels Like 62.6 °F
N
3.0
Wind Variable Wind from East
Gusts 4.0 mph

Today
High -- | Low -- °F
--% Chance of Precip.
Yesterday
High -- | Low -- °F
Precip. -- in
6:52 AM 5:05 PM
New Moon, 0% visible
Pressure 29.84 in
Visibility 1.5 miles
Clouds Scattered Clouds 500 ft
Mostly Cloudy 1500 ft
Mostly Cloudy 25000 ft
Dew Point 62 °F
Humidity 99%
Rainfall 0.15 in
Snow Depth Not available.
UV 1 out of 12
Pollen 4.50 out of 12
Air Quality Not available.
Flu Activity Not available.
SPECI KNBG 221458Z 08004KT 1 1/2SM RA BR SCT005 BKN015 BKN250 17/16 A2984 RMK AO2 P0000 T01670156 $

More Conditions Fewer Conditions

Pressure 29.84 in
Visibility 1.5 miles
Clouds Scattered Clouds 500 ft
Mostly Cloudy 1500 ft
Mostly Cloudy 25000 ft
Dew Point 62 °F
Humidity 99%
Rainfall 0.15 in
Snow Depth Not available.
UV 1 out of 12
Pollen 4.50 out of 12
Air Quality Not available.
Flu Activity Not available.
SPECI KNBG 221458Z 08004KT 1 1/2SM RA BR SCT005 BKN015 BKN250 17/16 A2984 RMK AO2 P0000 T01670156 $

More Conditions Fewer Conditions

10-Day Weather Forecast

Almanac

Astronomy

Dec. 22, 2014 Rise Set
Actual Time
Civil Twilight
Nautical Twilight
Astronomical Twilight
Moon
Length of Visible Light
Length of Day
Tomorrow will be .
, % of the Moon is Illuminated

Today's Extremes

State Highs State Lows

Community

WunderPhotos

Upload Photos

1,779,620 photos uploaded!

WunderBlogs® & News

Nearby

Air Quality

  Air Quality AQ Index Pollutant
Not available.

Snow Depth

Station Depth Elevation

Earthquake Activity

City Distance Mag. Time & Date
Minimum magnitude displayed is 2.5.

Coastal Water Temperatures

Place Temperature

Nearby Weather Stations